sensor_id;sensor_type;location;lat;lon;timestamp;P1;durP1;ratioP1;P2;durP2;ratioP2
2416;SDS011;1219;48.736;9.330;2022-10-17T00:00:54;4.30;;;2.97;;
2416;SDS011;1219;48.736;9.330;2022-10-17T00:03:20;2.80;;;2.50;;
2416;SDS011;1219;48.736;9.330;2022-10-17T00:05:46;3.30;;;3.03;;
2416;SDS011;1219;48.736;9.330;2022-10-17T00:08:13;9.70;;;3.13;;
2416;SDS011;1219;48.736;9.330;2022-10-17T00:10:39;6.73;;;2.83;;
2416;SDS011;1219;48.736;9.330;2022-10-17T00:13:06;5.20;;;3.20;;
2416;SDS011;1219;48.736;9.330;2022-10-17T00:15:32;3.10;;;2.63;;
2416;SDS011;1219;48.736;9.330;2022-10-17T00:17:58;4.00;;;3.10;;
2416;SDS011;1219;48.736;9.330;2022-10-17T00:20:25;3.17;;;2.37;;
2416;SDS011;1219;48.736;9.330;2022-10-17T00:22:51;12.70;;;3.77;;
2416;SDS011;1219;48.736;9.330;2022-10-17T00:25:17;6.60;;;3.33;;
2416;SDS011;1219;48.736;9.330;2022-10-17T00:27:43;4.87;;;2.87;;
2416;SDS011;1219;48.736;9.330;2022-10-17T00:30:10;4.13;;;2.90;;
2416;SDS011;1219;48.736;9.330;2022-10-17T00:32:36;3.17;;;2.87;;
2416;SDS011;1219;48.736;9.330;2022-10-17T00:35:02;3.10;;;2.90;;
2416;SDS011;1219;48.736;9.330;2022-10-17T00:37:29;3.03;;;2.70;;
2416;SDS011;1219;48.736;9.330;2022-10-17T00:39:55;4.50;;;2.53;;
2416;SDS011;1219;48.736;9.330;2022-10-17T00:42:21;5.17;;;3.40;;
2416;SDS011;1219;48.736;9.330;2022-10-17T00:47:16;3.37;;;3.07;;
2416;SDS011;1219;48.736;9.330;2022-10-17T00:49:43;6.13;;;2.77;;
2416;SDS011;1219;48.736;9.330;2022-10-17T00:52:10;4.43;;;2.70;;
2416;SDS011;1219;48.736;9.330;2022-10-17T00:54:40;3.37;;;2.40;;
2416;SDS011;1219;48.736;9.330;2022-10-17T00:57:07;6.43;;;3.13;;
2416;SDS011;1219;48.736;9.330;2022-10-17T00:59:33;5.10;;;2.87;;
2416;SDS011;1219;48.736;9.330;2022-10-17T01:02:15;5.90;;;3.07;;
2416;SDS011;1219;48.736;9.330;2022-10-17T01:04:42;4.73;;;2.67;;
2416;SDS011;1219;48.736;9.330;2022-10-17T01:07:09;4.43;;;3.07;;
2416;SDS011;1219;48.736;9.330;2022-10-17T01:09:35;4.10;;;2.87;;
2416;SDS011;1219;48.736;9.330;2022-10-17T01:14:53;2.50;;;2.30;;
2416;SDS011;1219;48.736;9.330;2022-10-17T01:28:16;3.37;;;3.00;;
2416;SDS011;1219;48.736;9.330;2022-10-17T01:30:58;3.50;;;3.07;;
2416;SDS011;1219;48.736;9.330;2022-10-17T01:36:36;5.20;;;3.40;;
2416;SDS011;1219;48.736;9.330;2022-10-17T01:39:08;4.20;;;3.70;;
2416;SDS011;1219;48.736;9.330;2022-10-17T01:41:40;4.17;;;3.60;;
2416;SDS011;1219;48.736;9.330;2022-10-17T01:46:37;4.30;;;3.33;;
2416;SDS011;1219;48.736;9.330;2022-10-17T01:49:03;6.53;;;3.00;;
2416;SDS011;1219;48.736;9.330;2022-10-17T01:51:32;3.07;;;2.87;;
2416;SDS011;1219;48.736;9.330;2022-10-17T01:54:01;3.27;;;2.73;;
2416;SDS011;1219;48.736;9.330;2022-10-17T01:56:29;3.60;;;3.30;;
2416;SDS011;1219;48.736;9.330;2022-10-17T01:58:57;6.70;;;4.07;;
2416;SDS011;1219;48.736;9.330;2022-10-17T02:01:25;3.33;;;3.03;;
2416;SDS011;1219;48.736;9.330;2022-10-17T02:03:52;7.50;;;3.57;;
2416;SDS011;1219;48.736;9.330;2022-10-17T02:06:19;4.53;;;3.10;;
2416;SDS011;1219;48.736;9.330;2022-10-17T02:08:48;5.30;;;3.20;;
2416;SDS011;1219;48.736;9.330;2022-10-17T02:11:19;4.60;;;3.47;;
2416;SDS011;1219;48.736;9.330;2022-10-17T02:26:44;4.47;;;3.50;;
2416;SDS011;1219;48.736;9.330;2022-10-17T02:29:15;3.50;;;3.20;;
2416;SDS011;1219;48.736;9.330;2022-10-17T02:31:48;4.67;;;3.60;;
2416;SDS011;1219;48.736;9.330;2022-10-17T02:34:37;5.63;;;3.17;;
2416;SDS011;1219;48.736;9.330;2022-10-17T02:37:01;3.93;;;3.50;;
2416;SDS011;1219;48.736;9.330;2022-10-17T02:39:29;3.90;;;3.53;;
2416;SDS011;1219;48.736;9.330;2022-10-17T02:41:56;7.60;;;4.30;;
2416;SDS011;1219;48.736;9.330;2022-10-17T02:44:23;6.20;;;3.77;;
2416;SDS011;1219;48.736;9.330;2022-10-17T02:46:54;6.93;;;3.97;;
2416;SDS011;1219;48.736;9.330;2022-10-17T02:49:23;8.20;;;3.40;;
2416;SDS011;1219;48.736;9.330;2022-10-17T02:55:01;6.17;;;3.40;;
2416;SDS011;1219;48.736;9.330;2022-10-17T02:57:21;3.60;;;3.30;;
2416;SDS011;1219;48.736;9.330;2022-10-17T02:59:49;5.73;;;3.43;;
2416;SDS011;1219;48.736;9.330;2022-10-17T03:02:16;7.10;;;3.53;;
2416;SDS011;1219;48.736;9.330;2022-10-17T03:04:44;3.93;;;3.50;;
2416;SDS011;1219;48.736;9.330;2022-10-17T03:07:10;3.57;;;3.23;;
2416;SDS011;1219;48.736;9.330;2022-10-17T03:09:36;4.57;;;3.07;;
2416;SDS011;1219;48.736;9.330;2022-10-17T03:12:02;5.53;;;3.20;;
2416;SDS011;1219;48.736;9.330;2022-10-17T03:14:28;4.53;;;3.87;;
2416;SDS011;1219;48.736;9.330;2022-10-17T03:16:54;4.10;;;3.60;;
2416;SDS011;1219;48.736;9.330;2022-10-17T03:19:20;5.37;;;3.37;;
2416;SDS011;1219;48.736;9.330;2022-10-17T03:21:46;4.77;;;3.50;;
2416;SDS011;1219;48.736;9.330;2022-10-17T03:24:12;6.10;;;3.33;;
2416;SDS011;1219;48.736;9.330;2022-10-17T03:26:38;10.33;;;3.37;;
2416;SDS011;1219;48.736;9.330;2022-10-17T03:29:04;4.73;;;3.27;;
2416;SDS011;1219;48.736;9.330;2022-10-17T03:31:30;4.50;;;3.43;;
2416;SDS011;1219;48.736;9.330;2022-10-17T03:33:56;4.43;;;3.77;;
2416;SDS011;1219;48.736;9.330;2022-10-17T03:36:22;8.00;;;4.13;;
2416;SDS011;1219;48.736;9.330;2022-10-17T03:38:48;9.03;;;3.97;;
2416;SDS011;1219;48.736;9.330;2022-10-17T03:41:17;6.43;;;3.60;;
2416;SDS011;1219;48.736;9.330;2022-10-17T03:43:43;4.43;;;4.03;;
2416;SDS011;1219;48.736;9.330;2022-10-17T03:46:09;12.27;;;4.17;;
2416;SDS011;1219;48.736;9.330;2022-10-17T03:48:35;5.20;;;3.80;;
2416;SDS011;1219;48.736;9.330;2022-10-17T03:51:05;4.63;;;3.73;;
2416;SDS011;1219;48.736;9.330;2022-10-17T03:53:32;6.13;;;3.83;;
2416;SDS011;1219;48.736;9.330;2022-10-17T03:56:14;5.30;;;3.60;;
2416;SDS011;1219;48.736;9.330;2022-10-17T03:58:41;3.43;;;3.13;;
2416;SDS011;1219;48.736;9.330;2022-10-17T04:01:08;5.70;;;3.63;;
2416;SDS011;1219;48.736;9.330;2022-10-17T04:03:34;10.63;;;4.57;;
2416;SDS011;1219;48.736;9.330;2022-10-17T04:06:00;6.00;;;4.00;;
2416;SDS011;1219;48.736;9.330;2022-10-17T04:08:27;4.90;;;4.00;;
2416;SDS011;1219;48.736;9.330;2022-10-17T04:10:56;6.90;;;4.10;;
2416;SDS011;1219;48.736;9.330;2022-10-17T04:13:23;11.23;;;4.50;;
2416;SDS011;1219;48.736;9.330;2022-10-17T04:15:52;3.90;;;3.50;;
2416;SDS011;1219;48.736;9.330;2022-10-17T04:18:18;7.23;;;3.80;;
2416;SDS011;1219;48.736;9.330;2022-10-17T04:20:44;5.00;;;4.17;;
2416;SDS011;1219;48.736;9.330;2022-10-17T04:23:10;4.40;;;3.80;;
2416;SDS011;1219;48.736;9.330;2022-10-17T04:25:36;6.23;;;3.80;;
2416;SDS011;1219;48.736;9.330;2022-10-17T04:28:02;6.30;;;4.20;;
2416;SDS011;1219;48.736;9.330;2022-10-17T04:30:28;4.00;;;3.70;;
2416;SDS011;1219;48.736;9.330;2022-10-17T04:32:54;7.53;;;4.13;;
2416;SDS011;1219;48.736;9.330;2022-10-17T04:35:20;8.20;;;3.60;;
2416;SDS011;1219;48.736;9.330;2022-10-17T04:37:46;8.03;;;4.03;;
2416;SDS011;1219;48.736;9.330;2022-10-17T04:40:12;7.93;;;4.20;;
2416;SDS011;1219;48.736;9.330;2022-10-17T04:42:38;3.80;;;3.47;;
2416;SDS011;1219;48.736;9.330;2022-10-17T04:45:04;8.60;;;4.50;;
2416;SDS011;1219;48.736;9.330;2022-10-17T04:47:30;9.17;;;4.60;;
2416;SDS011;1219;48.736;9.330;2022-10-17T04:49:56;5.10;;;4.60;;
2416;SDS011;1219;48.736;9.330;2022-10-17T04:52:22;11.60;;;5.40;;
2416;SDS011;1219;48.736;9.330;2022-10-17T04:54:49;3.93;;;3.50;;
2416;SDS011;1219;48.736;9.330;2022-10-17T04:57:16;7.03;;;3.90;;
2416;SDS011;1219;48.736;9.330;2022-10-17T04:59:42;7.30;;;5.20;;
2416;SDS011;1219;48.736;9.330;2022-10-17T05:02:08;3.90;;;3.50;;
2416;SDS011;1219;48.736;9.330;2022-10-17T05:04:34;8.70;;;3.90;;
2416;SDS011;1219;48.736;9.330;2022-10-17T05:07:00;4.00;;;3.67;;
2416;SDS011;1219;48.736;9.330;2022-10-17T05:09:26;4.13;;;3.70;;
2416;SDS011;1219;48.736;9.330;2022-10-17T05:11:52;6.10;;;3.83;;
2416;SDS011;1219;48.736;9.330;2022-10-17T05:14:18;6.07;;;3.80;;
2416;SDS011;1219;48.736;9.330;2022-10-17T05:16:44;9.30;;;5.03;;
2416;SDS011;1219;48.736;9.330;2022-10-17T05:19:10;5.33;;;3.17;;
2416;SDS011;1219;48.736;9.330;2022-10-17T05:21:36;5.10;;;3.90;;
2416;SDS011;1219;48.736;9.330;2022-10-17T05:24:06;3.73;;;3.43;;
2416;SDS011;1219;48.736;9.330;2022-10-17T05:26:32;4.97;;;3.93;;
2416;SDS011;1219;48.736;9.330;2022-10-17T05:28:59;10.33;;;3.90;;
2416;SDS011;1219;48.736;9.330;2022-10-17T05:31:26;6.43;;;3.50;;
2416;SDS011;1219;48.736;9.330;2022-10-17T05:33:52;5.80;;;3.30;;
2416;SDS011;1219;48.736;9.330;2022-10-17T05:36:18;4.93;;;4.50;;
2416;SDS011;1219;48.736;9.330;2022-10-17T05:38:47;3.50;;;3.20;;
2416;SDS011;1219;48.736;9.330;2022-10-17T05:41:14;8.10;;;4.33;;
2416;SDS011;1219;48.736;9.330;2022-10-17T05:43:40;6.43;;;4.03;;
2416;SDS011;1219;48.736;9.330;2022-10-17T05:46:06;4.37;;;3.70;;
2416;SDS011;1219;48.736;9.330;2022-10-17T05:48:32;5.80;;;4.03;;
2416;SDS011;1219;48.736;9.330;2022-10-17T05:51:00;5.87;;;3.97;;
2416;SDS011;1219;48.736;9.330;2022-10-17T05:53:29;8.17;;;3.87;;
2416;SDS011;1219;48.736;9.330;2022-10-17T05:55:59;4.33;;;3.90;;
2416;SDS011;1219;48.736;9.330;2022-10-17T05:58:26;4.07;;;3.40;;
2416;SDS011;1219;48.736;9.330;2022-10-17T06:00:56;15.80;;;4.30;;
2416;SDS011;1219;48.736;9.330;2022-10-17T06:03:22;8.97;;;3.70;;
2416;SDS011;1219;48.736;9.330;2022-10-17T06:05:48;4.60;;;4.03;;
2416;SDS011;1219;48.736;9.330;2022-10-17T06:08:15;6.77;;;5.50;;
2416;SDS011;1219;48.736;9.330;2022-10-17T06:10:41;5.30;;;4.07;;
2416;SDS011;1219;48.736;9.330;2022-10-17T06:13:07;6.37;;;4.60;;
2416;SDS011;1219;48.736;9.330;2022-10-17T06:15:33;4.60;;;4.00;;
2416;SDS011;1219;48.736;9.330;2022-10-17T06:17:59;5.33;;;4.10;;
2416;SDS011;1219;48.736;9.330;2022-10-17T06:20:25;9.47;;;4.63;;
2416;SDS011;1219;48.736;9.330;2022-10-17T06:22:51;7.07;;;4.27;;
2416;SDS011;1219;48.736;9.330;2022-10-17T06:25:17;7.53;;;5.30;;
2416;SDS011;1219;48.736;9.330;2022-10-17T06:27:43;9.23;;;4.63;;
2416;SDS011;1219;48.736;9.330;2022-10-17T06:30:09;4.87;;;4.47;;
2416;SDS011;1219;48.736;9.330;2022-10-17T06:32:35;8.73;;;5.90;;
2416;SDS011;1219;48.736;9.330;2022-10-17T06:35:01;7.57;;;5.77;;
2416;SDS011;1219;48.736;9.330;2022-10-17T06:37:31;8.33;;;5.53;;
2416;SDS011;1219;48.736;9.330;2022-10-17T06:39:57;14.57;;;7.10;;
2416;SDS011;1219;48.736;9.330;2022-10-17T06:42:23;11.10;;;6.77;;
2416;SDS011;1219;48.736;9.330;2022-10-17T06:44:49;13.73;;;6.60;;
2416;SDS011;1219;48.736;9.330;2022-10-17T06:47:15;18.93;;;7.20;;
2416;SDS011;1219;48.736;9.330;2022-10-17T06:49:41;13.60;;;7.23;;
2416;SDS011;1219;48.736;9.330;2022-10-17T06:52:08;16.63;;;8.10;;
2416;SDS011;1219;48.736;9.330;2022-10-17T06:54:34;13.87;;;8.60;;
2416;SDS011;1219;48.736;9.330;2022-10-17T06:57:00;21.20;;;10.43;;
2416;SDS011;1219;48.736;9.330;2022-10-17T06:59:26;14.37;;;8.30;;
2416;SDS011;1219;48.736;9.330;2022-10-17T07:01:52;17.10;;;9.20;;
2416;SDS011;1219;48.736;9.330;2022-10-17T07:04:18;13.07;;;8.77;;
2416;SDS011;1219;48.736;9.330;2022-10-17T07:06:44;15.57;;;9.30;;
2416;SDS011;1219;48.736;9.330;2022-10-17T07:09:10;18.63;;;9.50;;
2416;SDS011;1219;48.736;9.330;2022-10-17T07:11:36;10.30;;;7.67;;
2416;SDS011;1219;48.736;9.330;2022-10-17T07:14:04;8.10;;;7.40;;
2416;SDS011;1219;48.736;9.330;2022-10-17T07:16:30;10.73;;;7.73;;
2416;SDS011;1219;48.736;9.330;2022-10-17T07:18:56;14.33;;;6.60;;
2416;SDS011;1219;48.736;9.330;2022-10-17T07:21:22;11.67;;;8.20;;
2416;SDS011;1219;48.736;9.330;2022-10-17T07:23:48;13.30;;;11.90;;
2416;SDS011;1219;48.736;9.330;2022-10-17T07:26:15;15.70;;;10.30;;
2416;SDS011;1219;48.736;9.330;2022-10-17T07:28:42;11.53;;;9.63;;
2416;SDS011;1219;48.736;9.330;2022-10-17T07:31:09;9.67;;;7.63;;
2416;SDS011;1219;48.736;9.330;2022-10-17T07:33:36;12.40;;;6.63;;
2416;SDS011;1219;48.736;9.330;2022-10-17T07:36:02;10.77;;;6.93;;
2416;SDS011;1219;48.736;9.330;2022-10-17T07:38:28;9.53;;;6.30;;
2416;SDS011;1219;48.736;9.330;2022-10-17T07:40:58;10.93;;;5.50;;
2416;SDS011;1219;48.736;9.330;2022-10-17T07:43:26;7.00;;;5.97;;
2416;SDS011;1219;48.736;9.330;2022-10-17T07:45:52;6.37;;;5.63;;
2416;SDS011;1219;48.736;9.330;2022-10-17T07:48:18;13.07;;;6.87;;
2416;SDS011;1219;48.736;9.330;2022-10-17T07:50:45;7.73;;;5.77;;
2416;SDS011;1219;48.736;9.330;2022-10-17T07:53:12;6.20;;;5.70;;
2416;SDS011;1219;48.736;9.330;2022-10-17T07:55:38;11.93;;;6.17;;
2416;SDS011;1219;48.736;9.330;2022-10-17T07:58:05;10.23;;;6.13;;
2416;SDS011;1219;48.736;9.330;2022-10-17T08:00:31;13.63;;;6.40;;
2416;SDS011;1219;48.736;9.330;2022-10-17T08:02:57;7.30;;;5.67;;
2416;SDS011;1219;48.736;9.330;2022-10-17T08:05:23;6.60;;;5.07;;
2416;SDS011;1219;48.736;9.330;2022-10-17T08:07:50;6.77;;;4.33;;
2416;SDS011;1219;48.736;9.330;2022-10-17T08:10:16;5.70;;;4.23;;
2416;SDS011;1219;48.736;9.330;2022-10-17T08:12:42;5.77;;;5.30;;
2416;SDS011;1219;48.736;9.330;2022-10-17T08:15:10;5.13;;;4.73;;
2416;SDS011;1219;48.736;9.330;2022-10-17T08:17:36;6.80;;;4.20;;
2416;SDS011;1219;48.736;9.330;2022-10-17T08:20:06;7.80;;;5.90;;
2416;SDS011;1219;48.736;9.330;2022-10-17T08:22:32;10.00;;;7.30;;
2416;SDS011;1219;48.736;9.330;2022-10-17T08:24:58;9.63;;;5.83;;
2416;SDS011;1219;48.736;9.330;2022-10-17T08:27:24;8.70;;;4.50;;
2416;SDS011;1219;48.736;9.330;2022-10-17T08:29:52;6.60;;;4.20;;
2416;SDS011;1219;48.736;9.330;2022-10-17T08:32:22;4.20;;;3.10;;
2416;SDS011;1219;48.736;9.330;2022-10-17T08:34:49;4.00;;;3.60;;
2416;SDS011;1219;48.736;9.330;2022-10-17T08:37:15;4.40;;;3.20;;
2416;SDS011;1219;48.736;9.330;2022-10-17T08:39:41;3.97;;;3.20;;
2416;SDS011;1219;48.736;9.330;2022-10-17T08:47:39;8.73;;;3.50;;
2416;SDS011;1219;48.736;9.330;2022-10-17T08:50:10;3.80;;;3.50;;
2416;SDS011;1219;48.736;9.330;2022-10-17T08:55:04;3.43;;;3.00;;
2416;SDS011;1219;48.736;9.330;2022-10-17T08:57:38;3.90;;;3.37;;
2416;SDS011;1219;48.736;9.330;2022-10-17T09:00:06;9.33;;;3.50;;
2416;SDS011;1219;48.736;9.330;2022-10-17T09:02:56;3.83;;;3.23;;
2416;SDS011;1219;48.736;9.330;2022-10-17T09:07:58;4.50;;;2.87;;
2416;SDS011;1219;48.736;9.330;2022-10-17T09:10:36;3.00;;;2.70;;
2416;SDS011;1219;48.736;9.330;2022-10-17T09:18:11;5.30;;;3.00;;
2416;SDS011;1219;48.736;9.330;2022-10-17T09:20:45;3.07;;;2.77;;
2416;SDS011;1219;48.736;9.330;2022-10-17T09:23:13;2.93;;;2.70;;
2416;SDS011;1219;48.736;9.330;2022-10-17T09:25:44;6.03;;;3.80;;
2416;SDS011;1219;48.736;9.330;2022-10-17T09:30:45;3.27;;;3.07;;
2416;SDS011;1219;48.736;9.330;2022-10-17T09:35:38;4.13;;;3.57;;
2416;SDS011;1219;48.736;9.330;2022-10-17T09:38:06;3.10;;;2.80;;
2416;SDS011;1219;48.736;9.330;2022-10-17T09:40:33;5.60;;;3.10;;
2416;SDS011;1219;48.736;9.330;2022-10-17T09:43:04;5.87;;;2.93;;
2416;SDS011;1219;48.736;9.330;2022-10-17T09:45:31;4.70;;;2.70;;
2416;SDS011;1219;48.736;9.330;2022-10-17T09:50:29;3.77;;;2.70;;
2416;SDS011;1219;48.736;9.330;2022-10-17T09:52:55;4.00;;;2.70;;
2416;SDS011;1219;48.736;9.330;2022-10-17T09:55:29;4.83;;;2.97;;
2416;SDS011;1219;48.736;9.330;2022-10-17T09:57:58;4.10;;;2.30;;
2416;SDS011;1219;48.736;9.330;2022-10-17T10:00:25;3.93;;;2.80;;
2416;SDS011;1219;48.736;9.330;2022-10-17T10:03:07;2.53;;;2.33;;
2416;SDS011;1219;48.736;9.330;2022-10-17T10:05:33;4.80;;;2.40;;
2416;SDS011;1219;48.736;9.330;2022-10-17T10:08:00;6.03;;;3.00;;
2416;SDS011;1219;48.736;9.330;2022-10-17T10:10:27;5.10;;;2.77;;
2416;SDS011;1219;48.736;9.330;2022-10-17T10:13:15;7.10;;;2.60;;
2416;SDS011;1219;48.736;9.330;2022-10-17T10:15:43;3.00;;;2.53;;
2416;SDS011;1219;48.736;9.330;2022-10-17T10:23:36;5.73;;;2.60;;
2416;SDS011;1219;48.736;9.330;2022-10-17T10:26:16;2.50;;;2.30;;
2416;SDS011;1219;48.736;9.330;2022-10-17T10:28:49;9.90;;;2.27;;
2416;SDS011;1219;48.736;9.330;2022-10-17T10:31:15;5.10;;;2.50;;
2416;SDS011;1219;48.736;9.330;2022-10-17T10:33:49;3.00;;;1.83;;
2416;SDS011;1219;48.736;9.330;2022-10-17T10:36:15;6.40;;;2.10;;
2416;SDS011;1219;48.736;9.330;2022-10-17T10:38:41;2.83;;;2.00;;
2416;SDS011;1219;48.736;9.330;2022-10-17T10:41:15;2.63;;;2.23;;
2416;SDS011;1219;48.736;9.330;2022-10-17T10:43:45;3.70;;;3.00;;
2416;SDS011;1219;48.736;9.330;2022-10-17T10:46:19;4.03;;;1.90;;
2416;SDS011;1219;48.736;9.330;2022-10-17T10:48:53;5.40;;;1.80;;
2416;SDS011;1219;48.736;9.330;2022-10-17T10:51:25;4.30;;;1.77;;
2416;SDS011;1219;48.736;9.330;2022-10-17T10:54:09;1.90;;;1.80;;
2416;SDS011;1219;48.736;9.330;2022-10-17T10:56:37;3.53;;;2.10;;
2416;SDS011;1219;48.736;9.330;2022-10-17T11:04:11;3.60;;;2.30;;
2416;SDS011;1219;48.736;9.330;2022-10-17T11:06:39;5.67;;;2.27;;
2416;SDS011;1219;48.736;9.330;2022-10-17T11:09:18;2.73;;;2.37;;
2416;SDS011;1219;48.736;9.330;2022-10-17T11:11:47;2.10;;;1.90;;
2416;SDS011;1219;48.736;9.330;2022-10-17T11:19:46;4.40;;;2.00;;
2416;SDS011;1219;48.736;9.330;2022-10-17T11:22:19;3.33;;;2.00;;
2416;SDS011;1219;48.736;9.330;2022-10-17T11:24:51;3.03;;;2.20;;
2416;SDS011;1219;48.736;9.330;2022-10-17T11:27:21;1.90;;;1.70;;
2416;SDS011;1219;48.736;9.330;2022-10-17T11:29:47;2.50;;;2.30;;
2416;SDS011;1219;48.736;9.330;2022-10-17T11:34:59;2.20;;;1.63;;
2416;SDS011;1219;48.736;9.330;2022-10-17T11:37:28;5.47;;;1.87;;
2416;SDS011;1219;48.736;9.330;2022-10-17T11:39:56;2.83;;;2.00;;
2416;SDS011;1219;48.736;9.330;2022-10-17T11:42:26;2.60;;;2.00;;
2416;SDS011;1219;48.736;9.330;2022-10-17T11:44:55;10.17;;;2.10;;
2416;SDS011;1219;48.736;9.330;2022-10-17T11:50:44;4.73;;;1.83;;
2416;SDS011;1219;48.736;9.330;2022-10-17T11:52:51;2.23;;;1.50;;
2416;SDS011;1219;48.736;9.330;2022-10-17T11:57:48;3.23;;;1.87;;
2416;SDS011;1219;48.736;9.330;2022-10-17T12:02:59;1.70;;;1.60;;
2416;SDS011;1219;48.736;9.330;2022-10-17T12:05:30;1.80;;;1.67;;
2416;SDS011;1219;48.736;9.330;2022-10-17T12:10:29;8.40;;;2.03;;
2416;SDS011;1219;48.736;9.330;2022-10-17T12:13:12;3.20;;;2.30;;
2416;SDS011;1219;48.736;9.330;2022-10-17T12:15:43;4.80;;;2.53;;
2416;SDS011;1219;48.736;9.330;2022-10-17T12:18:14;4.13;;;1.80;;
2416;SDS011;1219;48.736;9.330;2022-10-17T12:20:40;3.00;;;1.70;;
2416;SDS011;1219;48.736;9.330;2022-10-17T12:25:36;2.10;;;1.40;;
2416;SDS011;1219;48.736;9.330;2022-10-17T12:30:49;6.03;;;1.70;;
2416;SDS011;1219;48.736;9.330;2022-10-17T12:33:17;1.53;;;1.30;;
2416;SDS011;1219;48.736;9.330;2022-10-17T12:35:47;4.77;;;1.70;;
2416;SDS011;1219;48.736;9.330;2022-10-17T12:38:18;1.50;;;1.40;;
2416;SDS011;1219;48.736;9.330;2022-10-17T12:45:53;2.20;;;1.50;;
2416;SDS011;1219;48.736;9.330;2022-10-17T12:50:59;5.10;;;1.40;;
2416;SDS011;1219;48.736;9.330;2022-10-17T12:53:28;1.40;;;1.30;;
2416;SDS011;1219;48.736;9.330;2022-10-17T12:56:06;2.70;;;1.33;;
2416;SDS011;1219;48.736;9.330;2022-10-17T12:58:33;2.77;;;1.40;;
2416;SDS011;1219;48.736;9.330;2022-10-17T13:00:59;2.93;;;1.40;;
2416;SDS011;1219;48.736;9.330;2022-10-17T13:03:27;2.13;;;1.40;;
2416;SDS011;1219;48.736;9.330;2022-10-17T13:05:56;3.00;;;1.73;;
2416;SDS011;1219;48.736;9.330;2022-10-17T13:08:24;2.23;;;1.57;;
2416;SDS011;1219;48.736;9.330;2022-10-17T13:10:52;1.87;;;1.60;;
2416;SDS011;1219;48.736;9.330;2022-10-17T13:13:22;3.03;;;1.60;;
2416;SDS011;1219;48.736;9.330;2022-10-17T13:15:52;2.67;;;1.57;;
2416;SDS011;1219;48.736;9.330;2022-10-17T13:18:22;3.60;;;1.70;;
2416;SDS011;1219;48.736;9.330;2022-10-17T13:21:02;2.57;;;1.40;;
2416;SDS011;1219;48.736;9.330;2022-10-17T13:23:30;2.03;;;1.67;;
2416;SDS011;1219;48.736;9.330;2022-10-17T13:26:07;2.43;;;1.57;;
2416;SDS011;1219;48.736;9.330;2022-10-17T13:28:36;1.90;;;1.50;;
2416;SDS011;1219;48.736;9.330;2022-10-17T13:31:02;4.80;;;1.60;;
2416;SDS011;1219;48.736;9.330;2022-10-17T13:33:37;1.83;;;1.43;;
2416;SDS011;1219;48.736;9.330;2022-10-17T13:36:05;5.63;;;1.87;;
2416;SDS011;1219;48.736;9.330;2022-10-17T13:38:31;5.00;;;1.53;;
2416;SDS011;1219;48.736;9.330;2022-10-17T13:40:58;3.20;;;1.40;;
2416;SDS011;1219;48.736;9.330;2022-10-17T13:43:24;2.20;;;1.23;;
2416;SDS011;1219;48.736;9.330;2022-10-17T13:45:51;1.50;;;1.40;;
2416;SDS011;1219;48.736;9.330;2022-10-17T13:48:27;5.60;;;1.50;;
2416;SDS011;1219;48.736;9.330;2022-10-17T13:50:56;1.87;;;1.40;;
2416;SDS011;1219;48.736;9.330;2022-10-17T13:53:24;3.23;;;1.60;;
2416;SDS011;1219;48.736;9.330;2022-10-17T13:58:23;2.00;;;1.40;;
2416;SDS011;1219;48.736;9.330;2022-10-17T14:00:49;1.50;;;1.40;;
2416;SDS011;1219;48.736;9.330;2022-10-17T14:03:17;6.60;;;1.70;;
2416;SDS011;1219;48.736;9.330;2022-10-17T14:08:27;3.00;;;1.57;;
2416;SDS011;1219;48.736;9.330;2022-10-17T14:10:54;2.53;;;1.70;;
2416;SDS011;1219;48.736;9.330;2022-10-17T14:13:21;2.23;;;1.93;;
2416;SDS011;1219;48.736;9.330;2022-10-17T14:15:47;1.83;;;1.43;;
2416;SDS011;1219;48.736;9.330;2022-10-17T14:18:16;2.10;;;1.90;;
2416;SDS011;1219;48.736;9.330;2022-10-17T14:20:46;4.67;;;1.53;;
2416;SDS011;1219;48.736;9.330;2022-10-17T14:23:30;4.33;;;1.80;;
2416;SDS011;1219;48.736;9.330;2022-10-17T14:26:07;1.67;;;1.57;;
2416;SDS011;1219;48.736;9.330;2022-10-17T14:28:33;3.20;;;1.67;;
2416;SDS011;1219;48.736;9.330;2022-10-17T14:33:34;3.63;;;1.70;;
2416;SDS011;1219;48.736;9.330;2022-10-17T14:36:01;3.40;;;1.73;;
2416;SDS011;1219;48.736;9.330;2022-10-17T14:38:29;1.63;;;1.50;;
2416;SDS011;1219;48.736;9.330;2022-10-17T14:40:59;4.67;;;1.50;;
2416;SDS011;1219;48.736;9.330;2022-10-17T14:43:27;3.17;;;1.57;;
2416;SDS011;1219;48.736;9.330;2022-10-17T14:45:57;3.87;;;1.50;;
2416;SDS011;1219;48.736;9.330;2022-10-17T14:48:23;2.20;;;1.50;;
2416;SDS011;1219;48.736;9.330;2022-10-17T14:53:34;5.60;;;1.63;;
2416;SDS011;1219;48.736;9.330;2022-10-17T14:56:02;3.20;;;1.70;;
2416;SDS011;1219;48.736;9.330;2022-10-17T14:58:31;1.70;;;1.60;;
2416;SDS011;1219;48.736;9.330;2022-10-17T15:00:57;2.93;;;1.47;;
2416;SDS011;1219;48.736;9.330;2022-10-17T15:03:24;1.90;;;1.80;;
2416;SDS011;1219;48.736;9.330;2022-10-17T15:05:50;4.50;;;1.80;;
2416;SDS011;1219;48.736;9.330;2022-10-17T15:08:18;3.10;;;1.90;;
2416;SDS011;1219;48.736;9.330;2022-10-17T15:10:44;2.70;;;1.90;;
2416;SDS011;1219;48.736;9.330;2022-10-17T15:13:10;5.13;;;2.73;;
2416;SDS011;1219;48.736;9.330;2022-10-17T15:15:37;3.33;;;1.93;;
2416;SDS011;1219;48.736;9.330;2022-10-17T15:18:04;2.70;;;1.80;;
2416;SDS011;1219;48.736;9.330;2022-10-17T15:20:30;2.37;;;2.17;;
2416;SDS011;1219;48.736;9.330;2022-10-17T15:22:58;4.87;;;2.23;;
2416;SDS011;1219;48.736;9.330;2022-10-17T15:25:24;2.83;;;2.23;;
2416;SDS011;1219;48.736;9.330;2022-10-17T15:27:51;2.43;;;2.00;;
2416;SDS011;1219;48.736;9.330;2022-10-17T15:30:19;6.67;;;2.60;;
2416;SDS011;1219;48.736;9.330;2022-10-17T15:32:45;3.83;;;2.10;;
2416;SDS011;1219;48.736;9.330;2022-10-17T15:35:11;5.97;;;2.20;;
2416;SDS011;1219;48.736;9.330;2022-10-17T15:37:37;2.70;;;2.50;;
2416;SDS011;1219;48.736;9.330;2022-10-17T15:40:04;2.20;;;2.00;;
2416;SDS011;1219;48.736;9.330;2022-10-17T15:42:30;7.70;;;2.43;;
2416;SDS011;1219;48.736;9.330;2022-10-17T15:44:56;3.80;;;2.13;;
2416;SDS011;1219;48.736;9.330;2022-10-17T15:47:25;8.10;;;2.50;;
2416;SDS011;1219;48.736;9.330;2022-10-17T15:49:52;3.53;;;2.27;;
2416;SDS011;1219;48.736;9.330;2022-10-17T15:52:18;3.90;;;2.33;;
2416;SDS011;1219;48.736;9.330;2022-10-17T15:54:44;2.33;;;2.13;;
2416;SDS011;1219;48.736;9.330;2022-10-17T15:57:15;2.87;;;2.07;;
2416;SDS011;1219;48.736;9.330;2022-10-17T15:59:41;5.27;;;2.67;;
2416;SDS011;1219;48.736;9.330;2022-10-17T16:02:11;2.23;;;2.00;;
2416;SDS011;1219;48.736;9.330;2022-10-17T16:04:38;3.10;;;2.80;;
2416;SDS011;1219;48.736;9.330;2022-10-17T16:07:04;3.17;;;2.30;;
2416;SDS011;1219;48.736;9.330;2022-10-17T16:09:31;5.27;;;2.00;;
2416;SDS011;1219;48.736;9.330;2022-10-17T16:11:57;2.30;;;2.10;;
2416;SDS011;1219;48.736;9.330;2022-10-17T16:14:24;2.73;;;2.30;;
2416;SDS011;1219;48.736;9.330;2022-10-17T16:16:50;5.80;;;2.30;;
2416;SDS011;1219;48.736;9.330;2022-10-17T16:19:16;4.83;;;2.50;;
2416;SDS011;1219;48.736;9.330;2022-10-17T16:21:42;2.70;;;2.47;;
2416;SDS011;1219;48.736;9.330;2022-10-17T16:24:12;6.47;;;2.77;;
2416;SDS011;1219;48.736;9.330;2022-10-17T16:26:38;3.30;;;2.80;;
2416;SDS011;1219;48.736;9.330;2022-10-17T16:29:04;4.80;;;2.60;;
2416;SDS011;1219;48.736;9.330;2022-10-17T16:31:32;4.83;;;3.07;;
2416;SDS011;1219;48.736;9.330;2022-10-17T16:33:58;4.77;;;3.93;;
2416;SDS011;1219;48.736;9.330;2022-10-17T16:36:25;4.97;;;3.33;;
2416;SDS011;1219;48.736;9.330;2022-10-17T16:38:51;4.23;;;3.60;;
2416;SDS011;1219;48.736;9.330;2022-10-17T16:43:50;6.30;;;3.87;;
2416;SDS011;1219;48.736;9.330;2022-10-17T16:46:17;11.07;;;4.27;;
2416;SDS011;1219;48.736;9.330;2022-10-17T16:48:44;4.20;;;3.80;;
2416;SDS011;1219;48.736;9.330;2022-10-17T16:51:11;11.93;;;3.77;;
2416;SDS011;1219;48.736;9.330;2022-10-17T16:53:37;5.23;;;4.00;;
2416;SDS011;1219;48.736;9.330;2022-10-17T16:56:07;13.53;;;4.80;;
2416;SDS011;1219;48.736;9.330;2022-10-17T16:58:34;4.77;;;3.70;;
2416;SDS011;1219;48.736;9.330;2022-10-17T17:01:04;7.30;;;4.00;;
2416;SDS011;1219;48.736;9.330;2022-10-17T17:03:33;3.70;;;3.20;;
2416;SDS011;1219;48.736;9.330;2022-10-17T17:05:59;11.00;;;3.97;;
2416;SDS011;1219;48.736;9.330;2022-10-17T17:08:25;3.90;;;2.90;;
2416;SDS011;1219;48.736;9.330;2022-10-17T17:10:51;6.53;;;4.00;;
2416;SDS011;1219;48.736;9.330;2022-10-17T17:13:19;7.70;;;4.00;;
2416;SDS011;1219;48.736;9.330;2022-10-17T17:15:45;4.13;;;3.60;;